Time;durP1;ratioP1;P1;durP2;ratioP2;P2;SDS_P1;SDS_P2;PMS_P1;PMS_P2;Temp;Humidity;BMP_temperature;BMP_pressure;BME280_temperature;BME280_humidity;BME280_pressure;Samples;Min_cycle;Max_cycle;Signal;HPM_P1;HPM_P2
2021/04/26 00:02:06;;;;;;;4.20;2.25;;;;;;;1.27;100.00;101038.72;5040304;28;20549;-75
2021/04/26 00:05:11;;;;;;;1.73;1.65;;;;;;;1.19;100.00;101039.06;5052501;28;20056;-75
2021/04/26 00:08:14;;;;;;;5.30;2.63;;;;;;;1.12;100.00;101028.84;5053030;28;20124;-75
2021/04/26 00:11:18;;;;;;;6.38;2.35;;;;;;;1.04;100.00;101024.47;5052382;28;20084;-75
2021/04/26 00:14:22;;;;;;;2.63;2.13;;;;;;;0.99;100.00;101030.31;5052649;28;20063;-75
2021/04/26 00:17:25;;;;;;;3.53;2.90;;;;;;;0.95;100.00;101028.72;5053104;28;20063;-75
2021/04/26 00:20:31;;;;;;;4.05;2.25;;;;;;;0.94;100.00;101027.94;5052794;28;20064;-75
2021/04/26 00:23:34;;;;;;;2.92;2.00;;;;;;;0.92;100.00;101021.25;5052904;28;20530;-75
2021/04/26 00:26:37;;;;;;;5.18;2.03;;;;;;;0.89;100.00;101024.78;5053014;28;20072;-74
2021/04/26 00:29:41;;;;;;;1.60;1.58;;;;;;;0.84;100.00;101028.66;5053151;28;20084;-74
2021/04/26 00:32:46;;;;;;;1.63;1.52;;;;;;;0.81;100.00;101023.94;5052491;28;20064;-75
2021/04/26 00:35:49;;;;;;;4.47;2.95;;;;;;;0.75;100.00;101019.97;5052633;28;20387;-74
2021/04/26 00:38:53;;;;;;;2.00;1.90;;;;;;;0.68;100.00;101011.69;5036203;28;20330;-74
2021/04/26 00:41:56;;;;;;;4.53;1.92;;;;;;;0.61;100.00;101017.09;5003326;28;20056;-74
2021/04/26 00:45:01;;;;;;;3.80;3.45;;;;;;;0.56;100.00;101001.81;5010664;28;20083;-74
2021/04/26 00:48:05;;;;;;;3.75;3.00;;;;;;;0.52;100.00;101005.72;5000094;28;20056;-75
2021/04/26 00:51:09;;;;;;;3.15;1.60;;;;;;;0.53;100.00;101004.53;5008418;28;20064;-75
2021/04/26 00:54:13;;;;;;;1.65;1.60;;;;;;;0.49;100.00;100996.28;4987661;28;20060;-74
2021/04/26 00:57:17;;;;;;;2.00;1.98;;;;;;;0.47;100.00;101000.56;4988889;28;20052;-74
2021/04/26 01:00:21;;;;;;;3.00;2.63;;;;;;;0.42;100.00;100995.44;4989166;28;20334;-74
2021/04/26 01:03:25;;;;;;;3.75;3.55;;;;;;;0.38;100.00;100997.34;4989254;28;20060;-75
2021/04/26 01:06:29;;;;;;;1.80;1.80;;;;;;;0.31;100.00;100997.28;4989850;28;20068;-75
2021/04/26 01:09:33;;;;;;;2.00;1.95;;;;;;;0.27;100.00;100996.47;4976274;28;20177;-74
2021/04/26 01:12:50;;;;;;;3.17;2.38;;;;;;;0.24;100.00;101000.00;4977181;28;20048;-75
2021/04/26 01:16:15;;;;;;;5.22;1.83;;;;;;;0.19;100.00;100995.63;4991998;28;20284;-74
2021/04/26 01:19:39;;;;;;;2.25;2.15;;;;;;;0.15;100.00;100992.09;4987012;28;21324;-74
2021/04/26 01:23:21;;;;;;;2.90;2.78;;;;;;;0.07;100.00;100995.09;4990204;28;20799;-74
2021/04/26 01:26:52;;;;;;;3.05;2.65;;;;;;;0.05;100.00;101000.19;4988259;28;20924;-74
2021/04/26 01:30:14;;;;;;;5.10;3.58;;;;;;;0.00;100.00;100999.34;4989055;28;20136;-74
2021/04/26 01:33:21;;;;;;;;;;;;;;;-0.04;100.00;100997.75;4993049;28;20041;-74
2021/04/26 01:36:27;;;;;;;1.70;1.70;;;;;;;-0.11;100.00;100995.72;5008424;28;19916;-74
2021/04/26 01:39:32;;;;;;;2.25;2.15;;;;;;;-0.13;100.00;100994.53;5007518;28;21055;-74
2021/04/26 01:42:38;;;;;;;2.60;2.50;;;;;;;-0.18;100.00;100995.66;4988346;28;20076;-74
2021/04/26 01:45:44;;;;;;;5.13;2.28;;;;;;;-0.24;100.00;100979.97;4988982;28;20056;-74
2021/04/26 01:48:50;;;;;;;3.22;2.28;;;;;;;-0.29;100.00;100978.34;4990356;28;20052;-74
2021/04/26 01:51:54;;;;;;;8.20;2.90;;;;;;;-0.28;100.00;100981.88;4988500;28;20056;-74
2021/04/26 01:54:58;;;;;;;5.45;3.03;;;;;;;-0.32;100.00;100972.81;4990215;28;20045;-74
2021/04/26 01:58:03;;;;;;;3.20;2.85;;;;;;;-0.35;100.00;100960.69;4998146;28;20040;-74
2021/04/26 02:01:17;;;;;;;3.05;2.70;;;;;;;-0.37;100.00;100968.47;4997146;28;20053;-73
2021/04/26 02:04:21;;;;;;;1.75;1.63;;;;;;;-0.37;100.00;100964.97;4995731;28;20611;-73
2021/04/26 02:07:27;;;;;;;6.00;2.15;;;;;;;-0.39;100.00;100968.03;4993039;28;21061;-74
2021/04/26 02:10:32;;;;;;;2.63;2.42;;;;;;;-0.45;100.00;100958.59;4993031;28;20334;-73
2021/04/26 02:13:36;;;;;;;3.05;2.15;;;;;;;-0.52;100.00;100953.06;4992307;28;20052;-73
2021/04/26 02:16:39;;;;;;;4.32;2.70;;;;;;;-0.59;100.00;100953.00;4992339;28;20053;-73
2021/04/26 02:19:43;;;;;;;4.85;3.70;;;;;;;-0.64;100.00;100952.53;4992366;28;20753;-73
2021/04/26 02:22:49;;;;;;;1.50;1.50;;;;;;;-0.72;100.00;100957.13;4993412;28;20069;-73
2021/04/26 02:25:52;;;;;;;2.97;2.65;;;;;;;-0.80;100.00;100952.72;4992364;28;20069;-74
2021/04/26 02:28:56;;;;;;;3.85;3.50;;;;;;;-0.89;100.00;100954.97;4992265;28;20832;-74
2021/04/26 02:32:04;;;;;;;1.95;1.90;;;;;;;-0.92;100.00;100952.97;4992712;28;20274;-73
2021/04/26 02:35:10;;;;;;;3.05;1.80;;;;;;;-0.94;100.00;100953.34;4994217;28;20146;-73
2021/04/26 02:38:24;;;;;;;11.30;3.33;;;;;;;-0.97;100.00;100947.81;4994404;28;20359;-73
2021/04/26 02:41:33;;;;;;;2.58;2.53;;;;;;;-1.04;100.00;100945.00;5004995;28;20057;-73
2021/04/26 02:44:37;;;;;;;1.90;1.80;;;;;;;-1.09;100.00;100956.25;5016211;28;20348;-73
2021/04/26 02:47:44;;;;;;;2.42;2.22;;;;;;;-1.15;100.00;100939.38;5013118;28;20053;-74
2021/04/26 02:50:51;;;;;;;1.77;1.70;;;;;;;-1.18;100.00;100951.06;5013478;28;20278;-73
2021/04/26 02:53:56;;;;;;;4.03;2.35;;;;;;;-1.22;100.00;100946.72;5011756;28;20052;-73
2021/04/26 02:57:01;;;;;;;3.40;2.78;;;;;;;-1.20;100.00;100947.13;5013267;28;20716;-74
2021/04/26 03:00:06;;;;;;;3.90;2.45;;;;;;;-1.24;100.00;100949.03;5012778;28;20053;-74
2021/04/26 03:03:11;;;;;;;2.10;2.00;;;;;;;-1.25;100.00;100944.69;5013818;28;20599;-73
2021/04/26 03:06:16;;;;;;;2.80;2.60;;;;;;;-1.26;100.00;100943.13;5013673;28;20542;-73
2021/04/26 03:09:22;;;;;;;4.93;3.35;;;;;;;-1.29;100.00;100941.13;5012445;28;20049;-74
2021/04/26 03:12:26;;;;;;;2.20;2.05;;;;;;;-1.32;100.00;100936.44;5011608;28;20061;-73
2021/04/26 03:15:30;;;;;;;6.63;2.85;;;;;;;-1.35;100.00;100931.69;5012218;28;20486;-73
2021/04/26 03:18:35;;;;;;;4.03;2.33;;;;;;;-1.41;100.00;100935.91;5012228;28;20053;-74
2021/04/26 03:21:42;;;;;;;3.92;2.58;;;;;;;-1.41;100.00;100927.69;5012828;28;20427;-73
2021/04/26 03:24:45;;;;;;;2.90;2.08;;;;;;;-1.43;100.00;100935.47;5012495;28;20049;-73
2021/04/26 03:27:52;;;;;;;1.50;1.23;;;;;;;-1.43;100.00;100921.81;5009752;28;20063;-73
2021/04/26 03:30:57;;;;;;;9.35;3.05;;;;;;;-1.43;100.00;100927.28;5012442;28;20060;-74
2021/04/26 03:34:02;;;;;;;1.60;1.60;;;;;;;-1.49;100.00;100920.56;5010936;28;20679;-74
2021/04/26 03:37:06;;;;;;;22.88;2.47;;;;;;;-1.49;100.00;100909.66;5013090;28;20049;-74
2021/04/26 03:40:09;;;;;;;1.33;1.33;;;;;;;-1.52;100.00;100915.84;5020920;28;20253;-74
2021/04/26 03:43:14;;;;;;;10.13;3.83;;;;;;;-1.54;100.00;100902.56;5040924;28;20048;-74
2021/04/26 03:46:18;;;;;;;3.95;2.33;;;;;;;-1.54;100.00;100910.75;5041082;28;20048;-74
2021/04/26 03:49:23;;;;;;;5.50;2.42;;;;;;;-1.57;100.00;100898.63;5040578;28;21337;-74
2021/04/26 03:52:26;;;;;;;3.35;3.15;;;;;;;-1.58;100.00;100896.22;5038956;28;20045;-75
2021/04/26 03:55:30;;;;;;;3.75;2.50;;;;;;;-1.60;100.00;100893.09;5036234;28;20059;-74
2021/04/26 03:58:34;;;;;;;3.83;3.15;;;;;;;-1.62;100.00;100884.47;5037220;28;20053;-74
2021/04/26 04:01:38;;;;;;;4.78;3.15;;;;;;;-1.67;100.00;100880.13;5036834;28;20064;-73
2021/04/26 04:04:41;;;;;;;17.70;3.17;;;;;;;-1.69;100.00;100879.69;5035958;28;20739;-74
2021/04/26 04:07:46;;;;;;;2.65;2.47;;;;;;;-1.72;100.00;100882.38;5036884;28;20045;-74
2021/04/26 04:10:50;;;;;;;3.75;2.42;;;;;;;-1.76;100.00;100871.41;5036715;28;20045;-74
2021/04/26 04:13:54;;;;;;;2.67;2.58;;;;;;;-1.75;100.00;100872.97;5036662;28;20048;-75
2021/04/26 04:16:57;;;;;;;1.98;1.88;;;;;;;-1.78;100.00;100868.28;5038423;28;20041;-74
2021/04/26 04:20:01;;;;;;;3.67;2.05;;;;;;;-1.78;100.00;100865.53;5040585;28;20041;-74
2021/04/26 04:23:04;;;;;;;1.80;1.80;;;;;;;-1.81;100.00;100860.81;5039956;28;20481;-74
2021/04/26 04:26:08;;;;;;;3.88;3.13;;;;;;;-1.82;100.00;100858.47;5038997;28;20051;-74
2021/04/26 04:29:12;;;;;;;4.03;3.75;;;;;;;-1.83;100.00;100863.13;5039929;28;20482;-75
2021/04/26 04:32:16;;;;;;;2.63;2.53;;;;;;;-1.80;100.00;100858.88;5038654;28;20040;-75
2021/04/26 04:35:20;;;;;;;1.88;1.88;;;;;;;-1.79;100.00;100861.22;5039817;28;20087;-74
2021/04/26 04:38:25;;;;;;;10.75;2.35;;;;;;;-1.77;100.00;100858.13;5040333;28;20045;-74
2021/04/26 04:41:29;;;;;;;1.92;1.90;;;;;;;-1.77;100.00;100861.63;5027526;28;20053;-74
2021/04/26 04:44:33;;;;;;;6.45;3.50;;;;;;;-1.81;100.00;100855.34;5020105;28;20068;-74
2021/04/26 04:47:36;;;;;;;2.63;2.53;;;;;;;-1.77;100.00;100850.72;5020746;28;21043;-75
2021/04/26 04:50:40;;;;;;;2.38;2.22;;;;;;;-1.73;100.00;100857.00;5008101;28;20240;-73
2021/04/26 04:53:44;;;;;;;2.13;2.03;;;;;;;-1.67;100.00;100855.53;5018599;28;20162;-74
2021/04/26 04:56:50;;;;;;;3.75;3.35;;;;;;;-1.66;100.00;100854.41;5020028;28;20048;-74
2021/04/26 04:59:54;;;;;;;2.05;1.98;;;;;;;-1.60;100.00;100855.66;5019741;28;20045;-74
2021/04/26 05:02:57;;;;;;;3.00;2.40;;;;;;;-1.49;100.00;100853.06;5020377;28;20310;-74
2021/04/26 05:06:01;;;;;;;2.97;2.45;;;;;;;-1.37;100.00;100846.59;5019360;28;20434;-74
2021/04/26 05:09:06;;;;;;;4.28;2.75;;;;;;;-1.25;100.00;100852.59;5019045;28;20053;-74
2021/04/26 05:12:09;;;;;;;4.20;3.05;;;;;;;-1.16;100.00;100853.09;5020002;28;20041;-75
2021/04/26 05:15:14;;;;;;;3.28;2.53;;;;;;;-1.06;100.00;100851.66;5018617;28;20594;-75
2021/04/26 05:18:17;;;;;;;7.20;3.70;;;;;;;-0.98;100.00;100848.63;5018892;28;20041;-75
2021/04/26 05:21:21;;;;;;;3.20;3.00;;;;;;;-0.84;100.00;100845.25;5019486;28;20052;-75
2021/04/26 05:24:24;;;;;;;4.65;3.22;;;;;;;-0.69;100.00;100843.47;5018810;28;20275;-74
2021/04/26 05:27:28;;;;;;;4.03;3.65;;;;;;;-0.57;100.00;100851.41;5018710;28;20045;-74
2021/04/26 05:30:32;;;;;;;5.82;3.35;;;;;;;-0.43;100.00;100846.84;5018913;28;20041;-74
2021/04/26 05:33:36;;;;;;;7.43;5.10;;;;;;;-0.28;100.00;100845.03;5018304;28;20060;-74
2021/04/26 05:36:39;;;;;;;11.63;5.10;;;;;;;-0.10;100.00;100846.75;5018362;28;20048;-74
2021/04/26 05:39:43;;;;;;;20.48;4.53;;;;;;;0.07;100.00;100836.28;5005364;28;20037;-76
2021/04/26 05:42:46;;;;;;;37.90;7.63;;;;;;;0.25;100.00;100842.69;4998498;28;20050;-75
2021/04/26 05:45:50;;;;;;;14.43;5.05;;;;;;;0.42;100.00;100839.25;4998056;28;20052;-75
2021/04/26 05:48:54;;;;;;;7.80;2.65;;;;;;;0.55;100.00;100840.50;4998306;28;20184;-74
2021/04/26 05:51:57;;;;;;;5.70;3.60;;;;;;;0.61;100.00;100839.75;4999514;28;20423;-74
2021/04/26 05:55:01;;;;;;;10.98;3.13;;;;;;;0.70;100.00;100831.19;4998614;28;20254;-74
2021/04/26 05:58:04;;;;;;;7.35;3.25;;;;;;;0.80;100.00;100833.19;4998516;28;20048;-75
2021/04/26 06:01:08;;;;;;;7.90;2.65;;;;;;;0.86;100.00;100828.91;4998614;28;20084;-75
2021/04/26 06:04:12;;;;;;;2.03;1.98;;;;;;;0.99;100.00;100832.88;4997208;28;20052;-75
2021/04/26 06:07:15;;;;;;;5.75;2.88;;;;;;;1.16;100.00;100829.41;4996972;28;20052;-76
2021/04/26 06:10:19;;;;;;;13.80;3.67;;;;;;;1.36;100.00;100821.59;4997245;28;20053;-75
2021/04/26 06:13:22;;;;;;;4.35;3.60;;;;;;;1.55;100.00;100815.75;4998073;28;20052;-75
2021/04/26 06:16:26;;;;;;;5.05;3.53;;;;;;;1.67;100.00;100817.31;4998580;28;20052;-75
2021/04/26 06:19:30;;;;;;;6.78;2.92;;;;;;;1.81;100.00;100811.81;4997501;28;20084;-75
2021/04/26 06:22:34;;;;;;;5.53;2.70;;;;;;;1.96;100.00;100819.66;4998044;28;20060;-75
2021/04/26 06:25:39;;;;;;;5.65;2.80;;;;;;;2.18;100.00;100814.94;4997746;28;20060;-73
2021/04/26 06:28:43;;;;;;;2.85;2.67;;;;;;;2.34;100.00;100820.75;5000152;28;20052;-74
2021/04/26 06:31:46;;;;;;;2.22;2.13;;;;;;;2.45;100.00;100807.78;4997805;28;20385;-75
2021/04/26 06:34:53;;;;;;;6.00;3.17;;;;;;;2.45;100.00;100813.28;4997000;28;20056;-76
2021/04/26 06:37:57;;;;;;;3.17;2.58;;;;;;;2.53;100.00;100812.09;4996877;28;20061;-75
2021/04/26 06:41:01;;;;;;;7.43;2.25;;;;;;;2.66;100.00;100806.94;5005529;28;20060;-75
2021/04/26 06:44:04;;;;;;;2.72;2.50;;;;;;;2.82;100.00;100804.50;5016388;28;20064;-75
2021/04/26 06:47:11;;;;;;;7.00;2.97;;;;;;;2.95;100.00;100814.66;5016614;28;20060;-74
2021/04/26 06:50:16;;;;;;;4.95;2.55;;;;;;;3.10;100.00;100798.84;5016716;28;20083;-73
2021/04/26 06:53:19;;;;;;;7.25;2.97;;;;;;;3.25;100.00;100788.56;5015308;28;20048;-74
2021/04/26 06:56:23;;;;;;;3.35;2.08;;;;;;;3.35;100.00;100784.94;5016575;28;20056;-76
2021/04/26 06:59:27;;;;;;;5.35;3.05;;;;;;;3.36;100.00;100778.25;5015345;28;20775;-75
2021/04/26 07:02:31;;;;;;;4.20;2.90;;;;;;;3.37;100.00;100779.81;5015488;28;20068;-74
2021/04/26 07:05:35;;;;;;;2.90;2.08;;;;;;;3.40;100.00;100779.78;5016985;28;20559;-74
2021/04/26 07:08:38;;;;;;;5.15;2.92;;;;;;;3.46;100.00;100774.66;5016774;28;20064;-75
2021/04/26 07:11:42;;;;;;;4.53;3.33;;;;;;;3.44;100.00;100777.03;5017372;28;20162;-73
2021/04/26 07:14:46;;;;;;;3.13;2.80;;;;;;;3.49;100.00;100771.84;5016656;28;20117;-74
2021/04/26 07:17:49;;;;;;;7.25;3.50;;;;;;;3.52;100.00;100759.25;5017943;28;20091;-74
2021/04/26 07:20:53;;;;;;;8.98;2.85;;;;;;;3.51;100.00;100755.72;5016535;28;20793;-74
2021/04/26 07:23:56;;;;;;;10.68;2.75;;;;;;;3.43;100.00;100750.66;5016847;28;20052;-75
2021/04/26 07:27:00;;;;;;;16.02;4.05;;;;;;;3.53;100.00;100753.34;5016085;28;20041;-75
2021/04/26 07:30:05;;;;;;;4.80;2.92;;;;;;;3.66;100.00;100753.66;5018231;28;20037;-74
2021/04/26 07:33:12;;;;;;;1.95;1.85;;;;;;;3.85;100.00;100748.31;5017218;28;20055;-75
2021/04/26 07:36:15;;;;;;;5.00;2.50;;;;;;;4.09;100.00;100741.03;5017297;28;20706;-75
2021/04/26 07:39:19;;;;;;;4.13;3.05;;;;;;;4.41;100.00;100740.66;5015964;28;20052;-75
2021/04/26 07:42:23;;;;;;;10.30;3.90;;;;;;;4.60;100.00;100735.28;4996859;28;21160;-75
2021/04/26 07:45:27;;;;;;;3.17;2.40;;;;;;;4.90;100.00;100739.22;4996331;28;20049;-76
2021/04/26 07:48:31;;;;;;;7.32;2.88;;;;;;;5.16;100.00;100733.72;4996578;28;21023;-75
2021/04/26 07:51:35;;;;;;;3.58;2.13;;;;;;;5.30;100.00;100727.19;4998950;28;20045;-75
2021/04/26 07:54:39;;;;;;;1.48;1.13;;;;;;;5.42;100.00;100717.53;5001424;28;20053;-75
2021/04/26 07:57:42;;;;;;;4.22;2.85;;;;;;;5.51;100.00;100720.53;4988784;28;20064;-75
2021/04/26 08:00:46;;;;;;;5.65;1.77;;;;;;;5.64;100.00;100719.53;5000839;28;20048;-75
2021/04/26 08:03:50;;;;;;;2.47;2.08;;;;;;;5.78;100.00;100708.22;5001596;28;20072;-76
2021/04/26 08:06:53;;;;;;;5.63;1.92;;;;;;;5.91;100.00;100711.19;5000453;28;20056;-76
2021/04/26 08:09:56;;;;;;;5.97;2.72;;;;;;;6.11;100.00;100710.00;4988636;28;20064;-75
2021/04/26 08:13:00;;;;;;;3.40;1.58;;;;;;;6.34;100.00;100705.63;5000733;28;20186;-75
2021/04/26 08:16:04;;;;;;;2.30;1.83;;;;;;;6.47;100.00;100714.84;5000499;28;20056;-75
2021/04/26 08:19:09;;;;;;;3.95;1.85;;;;;;;6.66;100.00;100708.50;5001392;28;20546;-75
2021/04/26 08:22:12;;;;;;;3.38;1.90;;;;;;;6.82;100.00;100709.31;4989256;28;20056;-75
2021/04/26 08:25:16;;;;;;;2.83;1.55;;;;;;;6.91;100.00;100705.19;5000832;28;20522;-75
2021/04/26 08:28:20;;;;;;;4.35;1.50;;;;;;;7.01;100.00;100704.94;5001121;28;20052;-76
2021/04/26 08:31:23;;;;;;;2.58;1.25;;;;;;;7.06;100.00;100695.34;5001298;28;20045;-75
2021/04/26 08:34:27;;;;;;;1.50;1.40;;;;;;;7.07;100.00;100696.91;5000659;28;20076;-75
2021/04/26 08:37:31;;;;;;;1.88;1.25;;;;;;;7.21;100.00;100697.34;5001495;28;20052;-75
2021/04/26 08:40:34;;;;;;;1.80;1.50;;;;;;;7.36;100.00;100698.56;5006487;28;20048;-74
2021/04/26 08:43:39;;;;;;;3.53;2.03;;;;;;;7.63;100.00;100685.22;5020687;28;20084;-75
2021/04/26 08:46:45;;;;;;;3.47;1.30;;;;;;;7.78;100.00;100695.91;5020983;28;20056;-75
2021/04/26 08:49:48;;;;;;;1.83;1.25;;;;;;;7.75;100.00;100682.94;5020390;28;20048;-75
2021/04/26 08:52:52;;;;;;;4.30;1.50;;;;;;;7.67;100.00;100674.03;5019431;28;20553;-74
2021/04/26 08:55:56;;;;;;;5.72;2.22;;;;;;;7.67;100.00;100678.81;5019589;28;20747;-74
2021/04/26 08:59:00;;;;;;;2.05;1.52;;;;;;;7.86;100.00;100669.56;5018867;28;20052;-74
2021/04/26 09:02:05;;;;;;;1.75;1.05;;;;;;;8.20;100.00;100661.50;5007537;28;20048;-75
2021/04/26 09:05:19;;;;;;;4.00;1.83;;;;;;;8.36;100.00;100658.66;5019577;28;20545;-74
2021/04/26 09:08:24;;;;;;;1.98;1.23;;;;;;;8.48;100.00;100649.59;5018121;28;20060;-74
2021/04/26 09:11:27;;;;;;;9.30;2.47;;;;;;;8.52;100.00;100664.13;5009732;28;20052;-74
2021/04/26 09:14:39;;;;;;;4.18;1.85;;;;;;;8.76;100.00;100665.41;5027653;28;20579;-73
2021/04/26 09:17:44;;;;;;;1.15;0.93;;;;;;;8.91;100.00;100654.63;5019613;28;20785;-74
2021/04/26 09:20:47;;;;;;;1.88;1.10;;;;;;;8.92;100.00;100656.19;5017930;28;20170;-74
2021/04/26 09:24:12;;;;;;;4.72;1.63;;;;;;;8.75;100.00;100652.72;5018583;28;20087;-73
2021/04/26 09:27:17;;;;;;;3.92;1.00;;;;;;;8.83;100.00;100654.06;5017930;28;20068;-74
2021/04/26 09:30:44;;;;;;;2.92;1.35;;;;;;;8.87;100.00;100648.41;5018303;28;20249;-72
2021/04/26 09:33:47;;;;;;;3.40;1.27;;;;;;;9.15;100.00;100642.72;5019448;28;20072;-73
2021/04/26 09:37:03;;;;;;;5.15;1.60;;;;;;;9.36;100.00;100646.00;5006804;28;21118;-73
2021/04/26 09:40:12;;;;;;;2.67;1.30;;;;;;;9.18;100.00;100636.25;5019325;28;20052;-75
2021/04/26 09:43:21;;;;;;;3.90;1.10;;;;;;;9.21;100.00;100631.03;5038320;28;20622;-73
2021/04/26 09:46:52;;;;;;;1.90;1.52;;;;;;;9.46;100.00;100633.75;5038369;28;20051;-73
2021/04/26 09:50:04;;;;;;;1.85;1.65;;;;;;;9.35;100.00;100622.22;5025994;28;20056;-76
2021/04/26 09:53:09;;;;;;;8.30;1.65;;;;;;;9.27;100.00;100632.78;5038813;28;20052;-74
2021/04/26 09:56:30;;;;;;;13.52;1.38;;;;;;;9.26;100.00;100619.34;5038566;28;20051;-74
2021/04/26 09:59:34;;;;;;;2.05;0.75;;;;;;;9.39;100.00;100622.88;5037946;28;20139;-74
2021/04/26 10:02:38;;;;;;;1.38;0.80;;;;;;;9.36;100.00;100618.19;5039214;28;20063;-74
2021/04/26 10:05:44;;;;;;;1.88;1.35;;;;;;;9.30;100.00;100625.56;5024987;28;20059;-75
2021/04/26 10:08:49;;;;;;;3.95;1.52;;;;;;;9.46;100.00;100622.66;5038068;28;20477;-74
2021/04/26 10:11:53;;;;;;;4.72;1.45;;;;;;;9.50;100.00;100624.06;5039381;28;20071;-74
2021/04/26 10:14:57;;;;;;;1.63;0.98;;;;;;;9.61;100.00;100607.03;5037192;28;21031;-75
2021/04/26 10:18:03;;;;;;;4.70;1.20;;;;;;;9.61;100.00;100601.47;5037988;28;21130;-74
2021/04/26 10:21:19;;;;;;;3.47;0.90;;;;;;;9.74;100.00;100594.63;5036323;28;20055;-74
2021/04/26 10:24:25;;;;;;;3.67;0.90;;;;;;;9.96;100.00;100593.84;5037246;28;20047;-74
2021/04/26 10:27:32;;;;;;;5.80;1.63;;;;;;;9.97;100.00;100596.16;5037762;28;20052;-74
2021/04/26 10:30:56;;;;;;;3.10;1.15;;;;;;;9.91;100.00;100586.84;5037246;28;20051;-74
2021/04/26 10:34:00;;;;;;;6.53;0.77;;;;;;;10.17;100.00;100585.50;5024397;28;20047;-74
2021/04/26 10:37:05;;;;;;;2.35;1.25;;;;;;;10.51;100.00;100574.25;5034911;28;20244;-74
2021/04/26 10:40:13;;;;;;;2.28;1.30;;;;;;;10.66;100.00;100569.66;5034431;28;20052;-75
2021/04/26 10:43:27;;;;;;;2.28;1.83;;;;;;;10.90;100.00;100569.88;5016747;28;20053;-75
2021/04/26 10:46:31;;;;;;;1.23;0.55;;;;;;;11.00;100.00;100560.31;5015903;28;20057;-74
2021/04/26 10:49:34;;;;;;;2.75;0.60;;;;;;;11.11;100.00;100548.72;5017335;28;20283;-74
2021/04/26 10:52:41;;;;;;;7.53;0.60;;;;;;;10.95;100.00;100551.78;5017513;28;20061;-74
2021/04/26 10:55:47;;;;;;;2.55;1.00;;;;;;;10.85;100.00;100541.88;5017705;28;20091;-74
2021/04/26 10:59:11;;;;;;;1.70;1.33;;;;;;;10.87;100.00;100547.75;5013257;28;20677;-75
2021/04/26 11:02:30;;;;;;;1.10;0.82;;;;;;;10.94;100.00;100544.66;5017490;28;20045;-75
2021/04/26 11:05:35;;;;;;;1.48;0.73;;;;;;;11.15;100.00;100538.19;5005673;28;20423;-75
2021/04/26 11:11:53;;;;;;;3.35;0.70;;;;;;;11.30;100.00;100533.56;5049207;28;20053;-73
2021/04/26 11:15:17;;;;;;;1.48;0.75;;;;;;;11.24;100.00;100529.84;5049192;28;20406;-74
2021/04/26 11:18:21;;;;;;;1.65;1.10;;;;;;;11.18;100.00;100521.31;5049064;28;20048;-74
2021/04/26 11:24:46;;;;;;;;;;;;;;;11.20;100.00;100518.06;5049509;28;20061;-74
2021/04/26 11:27:59;;;;;;;4.80;0.75;;;;;;;11.26;100.00;100516.22;5053140;28;19916;-74
2021/04/26 11:31:02;;;;;;;1.70;0.93;;;;;;;11.37;100.00;100502.56;5052289;28;20049;-76
2021/04/26 11:34:09;;;;;;;1.85;0.90;;;;;;;11.65;100.00;100500.56;5052638;28;20069;-74
2021/04/26 11:37:13;;;;;;;6.95;0.75;;;;;;;11.77;100.00;100500.41;5041916;28;20049;-77
2021/04/26 11:40:20;;;;;;;2.47;0.90;;;;;;;11.65;100.00;100492.94;5054627;28;20534;-75
2021/04/26 11:43:24;;;;;;;2.08;1.25;;;;;;;11.62;100.00;100488.31;5055008;28;20503;-77
2021/04/26 11:46:30;;;;;;;6.15;1.00;;;;;;;11.69;100.00;100476.88;5055135;28;20087;-75
2021/04/26 11:49:35;;;;;;;2.60;0.65;;;;;;;11.69;100.00;100471.28;5053415;28;20056;-78
2021/04/26 11:52:39;;;;;;;1.48;0.63;;;;;;;11.79;100.00;100461.63;5052231;28;20079;-79
2021/04/26 11:55:43;;;;;;;1.73;0.73;;;;;;;11.91;100.00;100465.50;5061047;28;20068;-79
2021/04/26 11:59:03;;;;;;;1.90;0.73;;;;;;;12.04;100.00;100458.44;5074066;28;20105;-78
2021/04/26 12:02:06;;;;;;;1.80;0.85;;;;;;;12.29;100.00;100459.28;5073231;28;20051;-77
2021/04/26 12:05:13;;;;;;;3.63;0.75;;;;;;;12.35;100.00;100451.78;5072625;28;20075;-78
2021/04/26 12:08:16;;;;;;;1.80;0.55;;;;;;;12.18;100.00;100446.63;5072022;28;20048;-77
2021/04/26 12:11:21;;;;;;;9.73;1.40;;;;;;;12.09;100.00;100443.06;5071695;28;20414;-77
2021/04/26 12:14:25;;;;;;;1.48;0.43;;;;;;;12.26;100.00;100435.84;5072496;28;20052;-77
2021/04/26 12:17:31;;;;;;;4.28;1.67;;;;;;;12.63;100.00;100439.22;5072908;28;20072;-77
2021/04/26 12:20:37;;;;;;;1.17;0.55;;;;;;;12.80;100.00;100429.16;5072555;28;20056;-77
2021/04/26 12:23:41;;;;;;;1.40;1.02;;;;;;;12.93;100.00;100433.25;5072105;28;20051;-78
2021/04/26 12:26:44;;;;;;;0.90;0.47;;;;;;;13.05;100.00;100428.72;5073255;28;20063;-77
2021/04/26 12:29:48;;;;;;;3.50;1.35;;;;;;;13.25;100.00;100414.88;5072469;28;20048;-76
2021/04/26 12:32:52;;;;;;;3.92;1.48;;;;;;;13.27;100.00;100409.56;5072809;28;20048;-76
2021/04/26 12:35:56;;;;;;;5.78;0.68;;;;;;;13.19;100.00;100394.38;5072136;28;20052;-75
2021/04/26 12:39:00;;;;;;;1.10;0.52;;;;;;;13.27;100.00;100406.75;5059222;28;20048;-75
2021/04/26 12:42:15;;;;;;;1.95;0.60;;;;;;;13.35;100.00;100413.50;5053879;28;20053;-74
2021/04/26 12:45:21;;;;;;;1.75;0.60;;;;;;;13.38;100.00;100411.78;5039538;28;20068;-74
2021/04/26 12:48:33;;;;;;;11.23;1.40;;;;;;;13.26;100.00;100402.41;5048093;28;20052;-72
2021/04/26 12:51:36;;;;;;;;;;;;;;;13.03;100.00;100406.00;5067674;28;20049;-72
2021/04/26 12:55:07;;;;;;;3.92;0.77;;;;;;;13.02;100.00;100396.06;5058249;28;19917;-72
2021/04/26 12:58:12;;;;;;;2.55;0.57;;;;;;;13.24;100.00;100379.75;5040007;28;20060;-71
2021/04/26 13:01:19;;;;;;;2.20;0.80;;;;;;;13.48;100.00;100386.03;5052222;28;20044;-72
2021/04/26 13:04:33;;;;;;;1.48;0.75;;;;;;;13.75;100.00;100379.34;5051076;28;20045;-72
2021/04/26 13:07:36;;;;;;;1.75;0.52;;;;;;;13.81;100.00;100371.81;5051618;28;20057;-72
2021/04/26 13:10:40;;;;;;;4.80;0.63;;;;;;;13.69;100.00;100354.06;5051668;28;20055;-73
2021/04/26 13:14:01;;;;;;;0.73;0.50;;;;;;;13.82;100.00;100356.53;5051956;28;20048;-72
2021/04/26 13:17:11;;;;;;;0.65;0.40;;;;;;;13.71;100.00;100352.81;5052174;28;20064;-73
2021/04/26 13:20:21;;;;;;;2.40;0.73;;;;;;;13.86;100.00;100340.31;5052160;28;20045;-74
2021/04/26 13:23:27;;;;;;;0.77;0.30;;;;;;;13.88;96.29;100325.84;5050951;28;20056;-74
2021/04/26 13:26:32;;;;;;;2.08;0.73;;;;;;;14.07;97.51;100307.53;5052284;28;20056;-74
2021/04/26 13:29:40;;;;;;;9.18;0.95;;;;;;;14.29;98.50;100305.06;5051795;28;20521;-73
2021/04/26 13:32:44;;;;;;;1.38;0.75;;;;;;;14.42;99.39;100305.47;5052234;28;20060;-73
2021/04/26 13:35:48;;;;;;;2.13;0.75;;;;;;;14.35;100.00;100291.88;5051848;28;20064;-74
2021/04/26 13:38:52;;;;;;;8.23;0.68;;;;;;;14.13;98.56;100286.75;5050816;28;20052;-74
2021/04/26 13:41:55;;;;;;;2.67;1.00;;;;;;;14.05;98.99;100291.22;5051385;28;20048;-74
2021/04/26 13:44:59;;;;;;;2.88;1.13;;;;;;;14.29;97.13;100299.47;5031523;28;20056;-75
2021/04/26 13:48:02;;;;;;;2.67;0.90;;;;;;;14.51;96.22;100294.09;5031130;28;20248;-74
2021/04/26 13:51:06;;;;;;;4.97;0.70;;;;;;;14.45;93.60;100290.47;5031264;28;20056;-75
2021/04/26 13:54:11;;;;;;;0.73;0.70;;;;;;;14.37;92.46;100283.75;5031389;28;20060;-74
2021/04/26 13:57:15;;;;;;;4.68;0.98;;;;;;;14.49;95.14;100279.81;5030228;28;20418;-74
2021/04/26 14:00:19;;;;;;;4.10;0.52;;;;;;;14.57;94.58;100278.13;5030784;28;20065;-74
2021/04/26 14:03:22;;;;;;;7.00;0.60;;;;;;;14.34;94.07;100276.31;5030059;28;20510;-74
2021/04/26 14:06:26;;;;;;;2.05;0.57;;;;;;;13.93;90.63;100271.94;5031647;28;20057;-74
2021/04/26 14:09:30;;;;;;;1.63;0.73;;;;;;;13.81;92.40;100270.25;5030990;28;20052;-73
2021/04/26 14:12:33;;;;;;;1.67;0.52;;;;;;;13.67;94.05;100261.41;5030941;28;20044;-73
2021/04/26 14:15:37;;;;;;;1.63;0.35;;;;;;;13.60;96.65;100250.63;5032000;28;20054;-73
2021/04/26 14:18:41;;;;;;;2.38;0.88;;;;;;;13.73;98.46;100249.53;5031170;28;20061;-74
2021/04/26 14:21:45;;;;;;;1.75;0.50;;;;;;;13.72;97.55;100247.97;5031295;28;20072;-73
2021/04/26 14:24:48;;;;;;;5.18;1.05;;;;;;;13.69;95.55;100247.69;5031039;28;20052;-73
2021/04/26 14:27:51;;;;;;;1.92;0.70;;;;;;;13.71;96.95;100238.06;5030692;28;20056;-73